createdAt,value
2018-10-16T00:00:21.915Z,69.50
2018-10-16T00:03:26.083Z,70.99
2018-10-16T00:06:30.251Z,71.41
2018-10-16T00:09:34.413Z,71.29
2018-10-16T00:12:38.843Z,70.88
2018-10-16T00:15:43.002Z,71.54
2018-10-16T00:18:47.151Z,71.84
2018-10-16T00:21:51.312Z,71.64
2018-10-16T00:24:55.467Z,70.50
2018-10-16T00:27:59.641Z,70.20
2018-10-16T00:31:03.802Z,70.38
2018-10-16T00:34:08.395Z,71.06
2018-10-16T00:37:12.546Z,70.75
2018-10-16T00:40:16.709Z,71.47
2018-10-16T00:43:20.882Z,70.32
2018-10-16T00:46:25.039Z,72.01
2018-10-16T00:49:29.200Z,72.56
2018-10-16T00:52:33.358Z,72.73
2018-10-16T00:55:37.516Z,72.72
2018-10-16T00:58:41.659Z,72.27
2018-10-16T01:01:45.826Z,71.95
2018-10-16T01:04:50.968Z,71.73
2018-10-16T01:07:55.087Z,71.32
2018-10-16T01:10:59.283Z,72.43
2018-10-16T01:14:03.583Z,71.80
2018-10-16T01:17:07.744Z,71.65
2018-10-16T01:20:13.306Z,72.87
2018-10-16T01:23:17.482Z,73.38
2018-10-16T01:26:21.761Z,72.71
2018-10-16T01:29:25.874Z,72.78
2018-10-16T01:32:30.011Z,73.61
2018-10-16T01:35:34.162Z,72.98
2018-10-16T01:38:38.506Z,72.54
2018-10-16T01:41:42.718Z,72.91
2018-10-16T01:44:46.874Z,72.53
2018-10-16T01:47:51.025Z,72.46
2018-10-16T01:50:55.154Z,71.89
2018-10-16T01:53:59.357Z,72.93
2018-10-16T01:57:03.470Z,72.91
2018-10-16T02:00:09.391Z,72.54
2018-10-16T02:03:13.530Z,72.28
2018-10-16T02:06:17.693Z,72.56
2018-10-16T02:09:23.202Z,72.86
2018-10-16T02:12:27.310Z,72.05
2018-10-16T02:15:31.419Z,72.25
2018-10-16T02:18:35.518Z,73.15
2018-10-16T02:21:39.616Z,73.48
2018-10-16T02:24:43.732Z,72.88
2018-10-16T02:27:47.859Z,72.78
2018-10-16T02:30:52.010Z,73.57
2018-10-16T02:33:56.119Z,73.47
2018-10-16T02:37:00.234Z,73.88
2018-10-16T02:40:05.075Z,74.06
2018-10-16T02:43:09.162Z,73.41
2018-10-16T02:46:13.318Z,74.23
2018-10-16T02:49:17.448Z,73.51
2018-10-16T02:52:21.598Z,73.45
2018-10-16T02:55:25.795Z,73.34
2018-10-16T02:58:29.930Z,73.81
2018-10-16T03:01:34.091Z,73.47
2018-10-16T03:04:38.218Z,73.41
2018-10-16T03:07:42.350Z,73.74
2018-10-16T03:10:46.476Z,74.03
2018-10-16T03:13:50.596Z,73.40
2018-10-16T03:16:54.728Z,73.67
2018-10-16T03:19:58.853Z,74.01
2018-10-16T03:23:02.964Z,74.13
2018-10-16T03:26:07.074Z,73.81
2018-10-16T03:29:11.706Z,74.04
2018-10-16T03:32:15.817Z,73.93
2018-10-16T03:35:19.988Z,74.45
2018-10-16T03:38:24.096Z,74.45
2018-10-16T03:41:28.229Z,74.51
2018-10-16T03:44:32.340Z,73.94
2018-10-16T03:47:36.506Z,74.38
2018-10-16T03:50:40.542Z,73.86
2018-10-16T03:53:44.643Z,73.82
2018-10-16T03:56:48.750Z,73.67
2018-10-16T03:59:52.839Z,74.06
2018-10-16T04:02:56.936Z,73.83
2018-10-16T04:06:01.035Z,73.82
2018-10-16T04:09:06.746Z,74.42
2018-10-16T04:12:10.843Z,75.49
2018-10-16T04:15:14.935Z,74.46
2018-10-16T04:18:19.038Z,74.27
2018-10-16T04:21:23.157Z,74.18
2018-10-16T04:24:27.261Z,74.30
2018-10-16T04:27:31.372Z,74.19
2018-10-16T04:30:35.494Z,74.61
2018-10-16T04:33:39.660Z,74.41
2018-10-16T04:36:43.758Z,73.87
2018-10-16T04:39:47.900Z,73.97
2018-10-16T04:42:52.010Z,74.41
2018-10-16T04:45:56.145Z,74.44
2018-10-16T04:49:00.258Z,74.68
2018-10-16T04:52:04.386Z,74.71
2018-10-16T04:55:08.864Z,74.09
2018-10-16T04:58:12.946Z,73.87
2018-10-16T05:01:17.086Z,73.66
2018-10-16T05:04:21.239Z,73.94
2018-10-16T05:07:25.366Z,73.96
2018-10-16T05:10:29.527Z,74.40
2018-10-16T05:13:33.664Z,74.93
2018-10-16T05:16:37.787Z,74.51
2018-10-16T05:19:41.924Z,75.02
2018-10-16T05:22:46.059Z,74.46
2018-10-16T05:25:50.160Z,74.14
2018-10-16T05:28:54.317Z,74.27
2018-10-16T05:31:58.462Z,74.43
2018-10-16T05:35:02.575Z,75.32
2018-10-16T05:38:06.794Z,75.67
2018-10-16T05:41:10.930Z,75.43
2018-10-16T05:44:15.072Z,75.22
2018-10-16T05:47:19.200Z,74.76
2018-10-16T05:50:23.314Z,74.62
2018-10-16T05:53:27.435Z,74.30
2018-10-16T05:56:31.598Z,74.83
2018-10-16T05:59:35.766Z,74.97
2018-10-16T06:02:39.882Z,74.92
2018-10-16T06:05:44.114Z,74.05
2018-10-16T06:08:48.190Z,74.28
2018-10-16T06:11:52.347Z,73.96
2018-10-16T06:14:56.465Z,72.32
2018-10-16T06:18:00.689Z,71.42
2018-10-16T06:21:04.863Z,70.33
2018-10-16T06:24:09.003Z,69.86
2018-10-16T06:27:13.260Z,68.62
2018-10-16T06:30:17.441Z,66.71
2018-10-16T06:33:23.782Z,65.23
2018-10-16T06:36:27.827Z,64.44
2018-10-16T06:39:32.803Z,64.15
2018-10-16T06:42:37.183Z,64.55
2018-10-16T06:45:41.303Z,66.55
2018-10-16T06:48:45.771Z,68.61
2018-10-16T06:51:49.590Z,68.83
2018-10-16T06:54:53.711Z,69.86
2018-10-16T06:57:57.850Z,70.24
2018-10-16T07:01:02.020Z,71.18
2018-10-16T07:04:06.986Z,71.52
2018-10-16T07:07:11.919Z,71.32
2018-10-16T07:10:15.970Z,71.57
2018-10-16T07:13:20.106Z,71.03
2018-10-16T07:16:24.235Z,70.73
2018-10-16T07:19:28.365Z,70.29
2018-10-16T07:22:32.490Z,69.77
2018-10-16T07:25:36.619Z,69.38
2018-10-16T07:28:40.739Z,70.29
2018-10-16T07:31:44.870Z,68.97
2018-10-16T07:34:49.045Z,68.79
2018-10-16T07:37:53.297Z,68.63
2018-10-16T07:40:57.389Z,69.38
2018-10-16T07:44:01.511Z,68.23
2018-10-16T07:47:06.070Z,68.08
2018-10-16T07:50:11.802Z,67.72
2018-10-16T07:53:15.948Z,67.48
2018-10-16T07:56:20.061Z,67.61
2018-10-16T07:59:24.227Z,66.07
2018-10-16T08:02:28.584Z,65.68
2018-10-16T08:05:32.767Z,64.76
2018-10-16T08:08:37.111Z,65.10
2018-10-16T08:11:45.258Z,63.63
2018-10-16T08:14:49.440Z,63.48
2018-10-16T08:17:53.610Z,63.11
2018-10-16T08:20:58.110Z,62.90
2018-10-16T08:24:02.342Z,62.31
2018-10-16T08:27:06.530Z,63.04
2018-10-16T08:30:11.354Z,61.95
2018-10-16T08:33:15.375Z,61.28
2018-10-16T08:36:19.754Z,61.30
2018-10-16T08:39:29.811Z,61.40
2018-10-16T08:42:50.196Z,60.71
2018-10-16T08:46:11.615Z,61.81
2018-10-16T08:49:33.085Z,60.99
2018-10-16T08:52:37.623Z,59.60
2018-10-16T08:55:42.366Z,59.50
2018-10-16T08:58:46.841Z,59.65
2018-10-16T09:01:50.989Z,59.05
2018-10-16T09:04:55.190Z,59.68
2018-10-16T09:07:59.322Z,59.23
2018-10-16T09:11:03.490Z,58.76
2018-10-16T09:14:08.109Z,56.61
2018-10-16T09:17:12.363Z,54.42
2018-10-16T09:20:16.602Z,52.96
2018-10-16T09:23:20.763Z,52.25
2018-10-16T09:26:24.925Z,50.00
2018-10-16T09:29:29.093Z,49.74
2018-10-16T09:32:33.492Z,48.13
2018-10-16T09:35:37.979Z,46.62
2018-10-16T09:38:42.399Z,45.29
2018-10-16T09:41:46.562Z,43.66
2018-10-16T09:44:50.723Z,43.32
2018-10-16T09:47:54.920Z,43.82
2018-10-16T09:50:59.082Z,41.53
2018-10-16T09:54:03.238Z,41.32
2018-10-16T09:57:07.390Z,40.44
2018-10-16T10:00:17.418Z,40.47
2018-10-16T10:03:21.510Z,41.08
2018-10-16T10:06:25.619Z,40.05
2018-10-16T10:09:29.736Z,38.82
2018-10-16T10:12:33.842Z,37.37
2018-10-16T10:15:37.946Z,37.67
2018-10-16T10:18:42.062Z,38.25
2018-10-16T10:21:46.179Z,38.32
2018-10-16T10:24:50.286Z,37.09
2018-10-16T10:27:54.393Z,35.82
2018-10-16T10:30:58.510Z,35.64
2018-10-16T10:34:02.626Z,36.86
2018-10-16T10:37:06.775Z,37.14
2018-10-16T10:40:10.927Z,35.73
2018-10-16T10:43:15.047Z,34.28
2018-10-16T10:46:19.167Z,34.91
2018-10-16T10:49:23.266Z,33.31
2018-10-16T10:52:27.407Z,33.30
2018-10-16T10:55:31.513Z,31.51
2018-10-16T10:58:35.605Z,32.61
2018-10-16T11:01:39.721Z,32.35
2018-10-16T11:04:43.819Z,31.88
2018-10-16T11:07:47.935Z,32.03
2018-10-16T11:10:52.034Z,32.55
2018-10-16T11:13:56.130Z,32.35
2018-10-16T11:17:00.259Z,30.82
2018-10-16T11:20:04.598Z,30.59
2018-10-16T11:23:08.702Z,30.88
2018-10-16T11:26:12.809Z,30.97
2018-10-16T11:29:16.935Z,30.24
2018-10-16T11:32:21.103Z,29.77
2018-10-16T11:35:25.198Z,30.12
2018-10-16T11:38:29.319Z,29.86
2018-10-16T11:41:33.418Z,29.83
2018-10-16T11:44:37.535Z,28.67
2018-10-16T11:47:41.686Z,30.21
2018-10-16T11:50:45.785Z,29.25
2018-10-16T11:53:49.917Z,28.59
2018-10-16T11:56:54.022Z,28.53
2018-10-16T11:59:58.127Z,29.20
2018-10-16T12:03:02.230Z,29.06
2018-10-16T12:06:06.851Z,27.89
2018-10-16T12:09:11.126Z,28.27
2018-10-16T12:12:15.258Z,28.36
2018-10-16T12:15:19.368Z,28.25
2018-10-16T12:18:26.747Z,28.48
2018-10-16T12:21:30.943Z,28.83
2018-10-16T12:24:35.067Z,27.72
2018-10-16T12:27:39.172Z,28.76
2018-10-16T12:30:43.278Z,28.83
2018-10-16T12:33:47.401Z,28.13
2018-10-16T12:36:51.517Z,28.50
2018-10-16T12:39:55.683Z,29.08
2018-10-16T12:42:59.863Z,27.61
2018-10-16T12:46:03.954Z,26.64
2018-10-16T12:49:08.047Z,27.86
2018-10-16T12:52:12.179Z,27.62
2018-10-16T12:55:16.299Z,27.99
2018-10-16T12:58:20.422Z,28.53
2018-10-16T13:01:24.558Z,28.34
2018-10-16T13:04:28.685Z,26.61
2018-10-16T13:07:37.844Z,24.89
2018-10-16T13:10:41.950Z,22.54
2018-10-16T13:13:46.091Z,21.18
2018-10-16T13:16:50.235Z,20.99
2018-10-16T13:19:54.343Z,21.29
2018-10-16T13:22:58.519Z,19.54
2018-10-16T13:26:02.630Z,20.00
2018-10-16T13:29:06.767Z,19.60
2018-10-16T13:32:11.119Z,18.82
2018-10-16T13:35:16.311Z,18.83
2018-10-16T13:38:20.451Z,19.51
2018-10-16T13:41:24.594Z,19.63
2018-10-16T13:44:28.939Z,20.55
2018-10-16T13:47:33.066Z,19.80
2018-10-16T13:50:37.191Z,20.38
2018-10-16T13:53:41.326Z,20.36
2018-10-16T13:56:45.510Z,21.01
2018-10-16T13:59:49.586Z,20.95
2018-10-16T14:02:54.198Z,22.53
2018-10-16T14:05:58.343Z,22.83
2018-10-16T14:09:02.496Z,22.46
2018-10-16T14:12:07.271Z,23.29
2018-10-16T14:15:12.081Z,23.52
2018-10-16T14:18:16.230Z,25.20
2018-10-16T14:21:20.356Z,25.33
2018-10-16T14:24:24.493Z,24.76
2018-10-16T14:27:28.636Z,26.06
2018-10-16T14:30:33.116Z,27.03
2018-10-16T14:33:37.276Z,26.56
2018-10-16T14:36:41.387Z,28.00
2018-10-16T14:39:45.566Z,27.86
2018-10-16T14:42:49.714Z,28.83
2018-10-16T14:45:54.022Z,30.27
2018-10-16T14:48:58.142Z,29.67
2018-10-16T14:52:02.309Z,30.50
2018-10-16T14:55:06.618Z,32.42
2018-10-16T14:58:11.042Z,32.79
2018-10-16T15:01:15.039Z,32.91
2018-10-16T15:04:19.183Z,33.71
2018-10-16T15:07:23.329Z,34.33
2018-10-16T15:10:27.629Z,35.81
2018-10-16T15:13:31.679Z,36.30
2018-10-16T15:16:36.067Z,37.07
2018-10-16T15:19:40.197Z,35.16
2018-10-16T15:22:44.319Z,36.36
2018-10-16T15:25:48.447Z,36.36
2018-10-16T15:28:52.599Z,38.24
2018-10-16T15:31:56.780Z,39.21
2018-10-16T15:35:00.872Z,39.29
2018-10-16T15:38:05.299Z,40.07
2018-10-16T15:41:09.450Z,41.19
2018-10-16T15:44:13.721Z,39.75
2018-10-16T15:47:17.828Z,41.26
2018-10-16T15:50:21.954Z,41.98
2018-10-16T15:53:26.066Z,42.62
2018-10-16T15:56:30.206Z,43.89
2018-10-16T15:59:34.336Z,43.86
2018-10-16T16:02:38.573Z,45.47
2018-10-16T16:05:42.699Z,46.23
2018-10-16T16:08:46.834Z,46.04
2018-10-16T16:11:50.969Z,46.59
2018-10-16T16:14:55.095Z,47.27
2018-10-16T16:17:59.252Z,47.79
2018-10-16T16:21:03.338Z,48.11
2018-10-16T16:24:07.543Z,48.99
2018-10-16T16:27:11.602Z,49.30
2018-10-16T16:30:16.793Z,49.82
2018-10-16T16:33:20.818Z,49.23
2018-10-16T16:36:24.950Z,49.04
2018-10-16T16:39:29.160Z,50.07
2018-10-16T16:42:33.246Z,49.36
2018-10-16T16:45:37.365Z,50.97
2018-10-16T16:48:41.484Z,50.88
2018-10-16T16:51:45.653Z,51.54
2018-10-16T16:54:50.019Z,51.09
2018-10-16T16:57:54.235Z,52.39
2018-10-16T17:00:58.891Z,52.47
2018-10-16T17:04:03.136Z,52.98
2018-10-16T17:07:07.276Z,53.67
2018-10-16T17:10:11.508Z,53.92
2018-10-16T17:13:15.680Z,53.75
2018-10-16T17:16:19.933Z,54.34
2018-10-16T17:19:24.120Z,54.28
2018-10-16T17:22:28.265Z,54.29
2018-10-16T17:25:32.805Z,54.00
2018-10-16T17:28:37.090Z,54.24
2018-10-16T17:31:41.353Z,54.54
2018-10-16T17:34:45.454Z,55.64
2018-10-16T17:37:49.543Z,55.19
2018-10-16T17:40:53.757Z,55.95
2018-10-16T17:43:58.002Z,56.13
2018-10-16T17:47:02.491Z,56.14
2018-10-16T17:50:09.515Z,56.28
2018-10-16T17:53:13.679Z,56.71
2018-10-16T17:56:18.018Z,56.92
2018-10-16T17:59:22.239Z,57.53
2018-10-16T18:02:26.432Z,56.99
2018-10-16T18:05:30.778Z,57.29
2018-10-16T18:08:35.652Z,57.53
2018-10-16T18:11:39.796Z,58.11
2018-10-16T18:14:44.054Z,57.69
2018-10-16T18:17:48.272Z,57.58
2018-10-16T18:20:52.440Z,57.88
2018-10-16T18:23:56.618Z,58.47
2018-10-16T18:27:00.862Z,58.32
2018-10-16T18:30:05.256Z,59.23
2018-10-16T18:33:09.500Z,58.98
2018-10-16T18:36:13.642Z,59.53
2018-10-16T18:39:17.836Z,59.37
2018-10-16T18:42:22.183Z,58.83
2018-10-16T18:45:26.335Z,59.11
2018-10-16T18:48:30.590Z,59.82
2018-10-16T18:51:35.144Z,59.59
2018-10-16T18:54:39.291Z,60.45
2018-10-16T18:57:43.536Z,60.55
2018-10-16T19:00:48.046Z,60.20
2018-10-16T19:03:52.451Z,59.68
2018-10-16T19:06:56.587Z,59.77
2018-10-16T19:10:00.803Z,59.30
2018-10-16T19:13:05.190Z,59.10
2018-10-16T19:16:09.353Z,59.28
2018-10-16T19:19:13.494Z,59.05
2018-10-16T19:22:17.634Z,59.09
2018-10-16T19:25:22.172Z,60.19
2018-10-16T19:28:26.875Z,60.05
2018-10-16T19:31:31.083Z,60.56
2018-10-16T19:34:35.324Z,60.68
2018-10-16T19:37:39.775Z,61.36
2018-10-16T19:40:44.118Z,61.45
2018-10-16T19:43:48.337Z,61.02
2018-10-16T19:46:52.480Z,61.91
2018-10-16T19:49:56.671Z,62.24
2018-10-16T19:53:00.884Z,61.77
2018-10-16T19:56:05.601Z,61.54
2018-10-16T19:59:09.731Z,62.53
2018-10-16T20:02:14.109Z,61.86
2018-10-16T20:05:18.458Z,62.16
2018-10-16T20:08:22.582Z,61.88
2018-10-16T20:11:26.720Z,62.20
2018-10-16T20:14:30.874Z,62.15
2018-10-16T20:17:35.047Z,61.96
2018-10-16T20:20:39.167Z,62.01
2018-10-16T20:23:43.384Z,62.69
2018-10-16T20:26:47.542Z,62.59
2018-10-16T20:29:51.654Z,62.99
2018-10-16T20:32:55.807Z,63.25
2018-10-16T20:35:59.972Z,63.89
2018-10-16T20:39:06.286Z,63.50
2018-10-16T20:42:10.462Z,64.08
2018-10-16T20:45:14.538Z,63.85
2018-10-16T20:48:18.650Z,64.45
2018-10-16T20:51:22.786Z,64.84
2018-10-16T20:54:26.895Z,64.85
2018-10-16T20:57:31.012Z,64.84
2018-10-16T21:00:35.133Z,64.68
2018-10-16T21:03:39.246Z,64.69
2018-10-16T21:06:43.665Z,64.44
2018-10-16T21:09:47.473Z,64.55
2018-10-16T21:12:51.712Z,65.45
2018-10-16T21:15:55.841Z,65.09
2018-10-16T21:18:59.983Z,65.22
2018-10-16T21:22:04.067Z,65.17
2018-10-16T21:25:08.644Z,64.51
2018-10-16T21:28:12.749Z,65.57
2018-10-16T21:31:16.843Z,65.37
2018-10-16T21:34:20.946Z,65.75
2018-10-16T21:37:25.038Z,66.09
2018-10-16T21:40:29.143Z,65.74
2018-10-16T21:43:33.246Z,65.85
2018-10-16T21:46:37.372Z,66.21
2018-10-16T21:49:41.476Z,65.69
2018-10-16T21:52:45.592Z,66.05
2018-10-16T21:55:49.760Z,66.20
2018-10-16T21:58:53.924Z,66.04
2018-10-16T22:02:03.174Z,66.39
2018-10-16T22:05:07.320Z,65.55
2018-10-16T22:08:11.415Z,65.56
2018-10-16T22:11:15.637Z,65.36
2018-10-16T22:14:19.666Z,66.05
2018-10-16T22:17:23.794Z,66.12
2018-10-16T22:20:27.898Z,66.28
2018-10-16T22:23:31.998Z,65.78
2018-10-16T22:26:36.110Z,65.68
2018-10-16T22:29:40.254Z,65.94
2018-10-16T22:32:44.326Z,66.44
2018-10-16T22:35:48.434Z,66.43
2018-10-16T22:38:52.536Z,65.64
2018-10-16T22:41:56.636Z,67.30
2018-10-16T22:45:00.762Z,67.62
2018-10-16T22:48:05.054Z,66.82
2018-10-16T22:51:09.183Z,67.62
2018-10-16T22:54:13.310Z,67.83
2018-10-16T22:57:17.458Z,67.69
2018-10-16T23:00:21.587Z,68.16
2018-10-16T23:03:25.725Z,68.16
2018-10-16T23:06:29.843Z,69.04
2018-10-16T23:09:33.981Z,68.92
2018-10-16T23:12:38.122Z,69.56
2018-10-16T23:15:42.247Z,69.91
2018-10-16T23:18:46.403Z,70.02
2018-10-16T23:21:50.534Z,69.38
2018-10-16T23:24:54.690Z,69.68
2018-10-16T23:27:58.794Z,69.14
2018-10-16T23:31:03.042Z,69.55
2018-10-16T23:34:07.553Z,69.52
2018-10-16T23:37:11.740Z,69.49
2018-10-16T23:40:15.810Z,69.30
2018-10-16T23:43:20.002Z,69.47
2018-10-16T23:46:24.066Z,68.83
2018-10-16T23:49:28.187Z,67.62
2018-10-16T23:52:32.310Z,67.32
2018-10-16T23:55:36.446Z,67.53
2018-10-16T23:58:40.559Z,67.35
